createdAt,value
2018-01-17T00:00:38.057Z,21.10
2018-01-17T00:01:38.051Z,21.03
2018-01-17T00:02:38.044Z,21.08
2018-01-17T00:03:38.038Z,21.08
2018-01-17T00:04:38.030Z,21.08
2018-01-17T00:05:38.023Z,21.00
2018-01-17T00:06:38.016Z,21.04
2018-01-17T00:07:38.011Z,21.04
2018-01-17T00:08:38.005Z,21.04
2018-01-17T00:09:38.000Z,21.04
2018-01-17T00:10:37.989Z,21.05
2018-01-17T00:11:37.982Z,21.08
2018-01-17T00:12:37.977Z,21.08
2018-01-17T00:13:37.971Z,21.04
2018-01-17T00:14:37.962Z,21.08
2018-01-17T00:15:37.956Z,21.01
2018-01-17T00:16:37.950Z,21.10
2018-01-17T00:17:37.943Z,21.08
2018-01-17T00:18:37.936Z,21.08
2018-01-17T00:19:37.931Z,21.04
2018-01-17T00:20:37.923Z,21.08
2018-01-17T00:21:37.915Z,21.14
2018-01-17T00:22:37.909Z,21.03
2018-01-17T00:23:37.903Z,21.03
2018-01-17T00:24:37.897Z,21.03
2018-01-17T00:25:37.890Z,21.03
2018-01-17T00:26:37.883Z,21.05
2018-01-17T00:27:37.878Z,21.11
2018-01-17T00:28:37.872Z,21.07
2018-01-17T00:29:37.863Z,21.07
2018-01-17T00:30:37.856Z,21.03
2018-01-17T00:31:37.850Z,21.08
2018-01-17T00:32:37.847Z,21.00
2018-01-17T00:33:37.836Z,21.05
2018-01-17T00:34:37.833Z,21.04
2018-01-17T00:35:37.823Z,21.03
2018-01-17T00:36:37.817Z,21.08
2018-01-17T00:37:37.809Z,21.05
2018-01-17T00:38:37.806Z,21.04
2018-01-17T00:39:37.796Z,21.10
2018-01-17T00:40:37.791Z,21.05
2018-01-17T00:41:37.782Z,21.05
2018-01-17T00:42:37.779Z,21.01
2018-01-17T00:43:37.769Z,21.01
2018-01-17T00:44:37.764Z,21.07
2018-01-17T00:45:37.758Z,21.05
2018-01-17T00:46:37.749Z,21.07
2018-01-17T00:47:37.744Z,20.98
2018-01-17T00:48:37.737Z,21.08
2018-01-17T00:49:37.732Z,21.08
2018-01-17T00:50:37.724Z,21.07
2018-01-17T00:51:37.720Z,21.07
2018-01-17T00:52:37.711Z,21.04
2018-01-17T00:53:37.705Z,21.07
2018-01-17T00:54:37.700Z,21.04
2018-01-17T00:55:37.692Z,21.05
2018-01-17T00:56:37.685Z,21.04
2018-01-17T00:57:37.677Z,21.04
2018-01-17T00:58:37.671Z,21.05
2018-01-17T00:59:37.664Z,21.00
2018-01-17T01:00:37.658Z,21.08
2018-01-17T01:01:37.659Z,21.00
2018-01-17T01:02:37.644Z,21.07
2018-01-17T01:03:37.639Z,21.03
2018-01-17T01:04:37.631Z,21.03
2018-01-17T01:05:37.624Z,21.07
2018-01-17T01:06:37.619Z,21.07
2018-01-17T01:07:37.612Z,21.05
2018-01-17T01:08:37.606Z,21.10
2018-01-17T01:09:37.597Z,21.05
2018-01-17T01:10:37.591Z,21.01
2018-01-17T01:11:37.588Z,21.07
2018-01-17T01:12:37.578Z,21.05
2018-01-17T01:13:37.574Z,21.04
2018-01-17T01:14:37.589Z,21.00
2018-01-17T01:15:37.560Z,21.04
2018-01-17T01:16:37.552Z,21.04
2018-01-17T01:17:37.547Z,21.04
2018-01-17T01:18:37.539Z,21.01
2018-01-17T01:19:37.532Z,21.04
2018-01-17T01:20:37.527Z,21.05
2018-01-17T01:21:37.520Z,21.00
2018-01-17T01:22:37.514Z,21.07
2018-01-17T01:23:37.506Z,21.08
2018-01-17T01:24:37.506Z,21.07
2018-01-17T01:25:37.493Z,21.07
2018-01-17T01:26:37.487Z,21.08
2018-01-17T01:27:37.481Z,21.04
2018-01-17T01:28:37.474Z,21.07
2018-01-17T01:29:37.468Z,21.05
2018-01-17T01:30:37.460Z,21.04
2018-01-17T01:31:37.454Z,21.04
2018-01-17T01:32:37.447Z,21.05
2018-01-17T01:33:37.440Z,21.08
2018-01-17T01:34:37.434Z,21.07
2018-01-17T01:35:37.429Z,21.01
2018-01-17T01:36:37.423Z,21.01
2018-01-17T01:37:37.418Z,21.07
2018-01-17T01:38:37.408Z,21.04
2018-01-17T01:39:37.400Z,21.01
2018-01-17T01:40:37.397Z,21.04
2018-01-17T01:41:37.392Z,21.00
2018-01-17T01:42:37.382Z,21.00
2018-01-17T01:43:37.377Z,21.05
2018-01-17T01:44:37.368Z,21.04
2018-01-17T01:45:37.363Z,21.05
2018-01-17T01:46:37.357Z,21.01
2018-01-17T01:47:37.350Z,21.07
2018-01-17T01:48:37.343Z,21.07
2018-01-17T01:49:37.336Z,21.05
2018-01-17T01:50:37.331Z,21.04
2018-01-17T01:51:37.325Z,21.01
2018-01-17T01:52:37.317Z,21.08
2018-01-17T01:53:37.310Z,21.07
2018-01-17T01:54:37.305Z,21.03
2018-01-17T01:55:37.298Z,21.03
2018-01-17T01:56:37.292Z,21.04
2018-01-17T01:57:37.285Z,21.01
2018-01-17T01:58:37.278Z,21.04
2018-01-17T01:59:37.272Z,21.07
2018-01-17T02:00:37.269Z,21.05
2018-01-17T02:01:37.260Z,21.07
2018-01-17T02:02:37.252Z,21.05
2018-01-17T02:03:37.246Z,21.05
2018-01-17T02:04:37.239Z,21.05
2018-01-17T02:05:37.233Z,21.01
2018-01-17T02:06:37.241Z,21.07
2018-01-17T02:07:37.225Z,21.01
2018-01-17T02:08:37.215Z,21.07
2018-01-17T02:09:37.207Z,21.01
2018-01-17T02:10:37.202Z,21.00
2018-01-17T02:11:37.193Z,21.07
2018-01-17T02:12:37.191Z,21.05
2018-01-17T02:13:37.179Z,21.04
2018-01-17T02:14:37.172Z,21.05
2018-01-17T02:15:37.168Z,21.01
2018-01-17T02:16:37.161Z,21.05
2018-01-17T02:17:37.153Z,21.04
2018-01-17T02:18:37.147Z,20.98
2018-01-17T02:19:37.142Z,21.11
2018-01-17T02:20:37.128Z,21.03
2018-01-17T02:21:37.126Z,21.03
2018-01-17T02:22:37.121Z,21.04
2018-01-17T02:23:37.115Z,21.03
2018-01-17T02:24:37.110Z,21.04
2018-01-17T02:25:37.106Z,21.04
2018-01-17T02:26:37.097Z,21.10
2018-01-17T02:27:37.097Z,20.96
2018-01-17T02:28:37.083Z,21.01
2018-01-17T02:29:37.076Z,21.00
2018-01-17T02:30:37.070Z,21.05
2018-01-17T02:31:37.067Z,21.03
2018-01-17T02:32:37.058Z,21.07
2018-01-17T02:33:37.050Z,21.08
2018-01-17T02:34:37.043Z,21.05
2018-01-17T02:35:37.038Z,21.03
2018-01-17T02:36:37.031Z,21.04
2018-01-17T02:37:37.024Z,21.03
2018-01-17T02:38:37.017Z,21.07
2018-01-17T02:39:37.012Z,21.13
2018-01-17T02:40:37.005Z,21.10
2018-01-17T02:41:36.998Z,21.07
2018-01-17T02:42:36.991Z,21.07
2018-01-17T02:43:36.984Z,21.11
2018-01-17T02:44:36.980Z,21.13
2018-01-17T02:45:36.977Z,21.07
2018-01-17T02:46:36.966Z,21.07
2018-01-17T02:47:36.962Z,21.10
2018-01-17T02:48:36.953Z,21.01
2018-01-17T02:49:36.945Z,21.08
2018-01-17T02:50:36.940Z,21.07
2018-01-17T02:51:36.936Z,21.04
2018-01-17T02:52:36.927Z,21.07
2018-01-17T02:53:36.920Z,21.08
2018-01-17T02:54:36.915Z,21.07
2018-01-17T02:55:36.907Z,21.08
2018-01-17T02:56:36.902Z,21.13
2018-01-17T02:57:36.893Z,21.07
2018-01-17T02:58:36.889Z,21.05
2018-01-17T02:59:36.882Z,21.07
2018-01-17T03:00:36.874Z,21.07
2018-01-17T03:01:36.869Z,21.04
2018-01-17T03:02:36.862Z,21.07
2018-01-17T03:03:36.856Z,21.07
2018-01-17T03:04:36.849Z,21.04
2018-01-17T03:05:36.842Z,21.05
2018-01-17T03:06:36.836Z,21.04
2018-01-17T03:07:36.830Z,21.01
2018-01-17T03:08:36.824Z,21.00
2018-01-17T03:09:36.817Z,20.98
2018-01-17T03:10:36.809Z,21.05
2018-01-17T03:11:36.803Z,21.05
2018-01-17T03:12:36.799Z,20.98
2018-01-17T03:13:36.792Z,21.03
2018-01-17T03:14:36.783Z,21.03
2018-01-17T03:15:36.777Z,20.96
2018-01-17T03:16:36.771Z,21.00
2018-01-17T03:17:36.764Z,21.01
2018-01-17T03:18:36.758Z,20.96
2018-01-17T03:19:36.750Z,20.96
2018-01-17T03:20:36.747Z,21.03
2018-01-17T03:21:36.739Z,21.03
2018-01-17T03:22:36.732Z,21.01
2018-01-17T03:23:36.727Z,21.01
2018-01-17T03:24:36.718Z,21.03
2018-01-17T03:25:36.712Z,21.07
2018-01-17T03:26:36.708Z,21.07
2018-01-17T03:27:36.701Z,20.98
2018-01-17T03:28:36.693Z,21.01
2018-01-17T03:29:36.686Z,21.04
2018-01-17T03:30:36.681Z,21.07
2018-01-17T03:31:36.674Z,20.98
2018-01-17T03:32:36.669Z,20.98
2018-01-17T03:33:36.660Z,21.00
2018-01-17T03:34:36.654Z,21.00
2018-01-17T03:35:36.649Z,21.03
2018-01-17T03:36:36.641Z,21.03
2018-01-17T03:37:36.635Z,21.04
2018-01-17T03:38:36.627Z,21.07
2018-01-17T03:39:36.622Z,21.03
2018-01-17T03:40:36.615Z,21.10
2018-01-17T03:41:36.609Z,21.08
2018-01-17T03:42:36.602Z,21.07
2018-01-17T03:43:36.596Z,21.05
2018-01-17T03:44:36.589Z,21.07
2018-01-17T03:45:36.581Z,20.98
2018-01-17T03:46:36.578Z,21.08
2018-01-17T03:47:36.571Z,20.95
2018-01-17T03:48:36.565Z,21.04
2018-01-17T03:49:36.557Z,21.07
2018-01-17T03:50:36.551Z,21.07
2018-01-17T03:51:36.544Z,21.00
2018-01-17T03:52:36.537Z,20.98
2018-01-17T03:53:36.530Z,21.04
2018-01-17T03:54:36.526Z,21.00
2018-01-17T03:55:36.518Z,20.98
2018-01-17T03:56:36.513Z,20.98
2018-01-17T03:57:36.511Z,21.05
2018-01-17T03:58:36.498Z,21.05
2018-01-17T03:59:36.492Z,21.04
2018-01-17T04:00:36.487Z,20.98
2018-01-17T04:01:36.480Z,21.07
2018-01-17T04:02:36.473Z,21.00
2018-01-17T04:03:36.466Z,21.08
2018-01-17T04:04:36.461Z,21.11
2018-01-17T04:05:36.454Z,21.08
2018-01-17T04:06:36.448Z,21.17
2018-01-17T04:07:36.440Z,21.15
2018-01-17T04:08:36.435Z,21.19
2018-01-17T04:09:36.427Z,21.15
2018-01-17T04:10:36.420Z,21.23
2018-01-17T04:11:36.417Z,21.25
2018-01-17T04:12:36.408Z,21.38
2018-01-17T04:13:36.403Z,21.25
2018-01-17T04:14:36.395Z,21.28
2018-01-17T04:15:36.389Z,21.35
2018-01-17T04:16:36.383Z,21.41
2018-01-17T04:17:36.378Z,21.47
2018-01-17T04:18:36.370Z,21.44
2018-01-17T04:19:36.363Z,21.43
2018-01-17T04:20:36.357Z,21.40
2018-01-17T04:21:36.350Z,21.43
2018-01-17T04:22:36.344Z,21.44
2018-01-17T04:23:36.340Z,21.56
2018-01-17T04:24:36.337Z,21.51
2018-01-17T04:25:36.325Z,21.58
2018-01-17T04:26:36.319Z,21.50
2018-01-17T04:27:36.313Z,21.56
2018-01-17T04:28:36.307Z,21.53
2018-01-17T04:29:36.300Z,21.58
2018-01-17T04:30:36.294Z,21.63
2018-01-17T04:31:36.284Z,21.54
2018-01-17T04:32:36.282Z,21.51
2018-01-17T04:33:36.273Z,21.54
2018-01-17T04:34:36.267Z,21.53
2018-01-17T04:35:36.261Z,21.68
2018-01-17T04:36:36.255Z,21.63
2018-01-17T04:37:36.250Z,21.62
2018-01-17T04:38:36.243Z,21.63
2018-01-17T04:39:36.235Z,21.60
2018-01-17T04:40:36.239Z,21.66
2018-01-17T04:41:36.226Z,21.62
2018-01-17T04:42:36.218Z,21.65
2018-01-17T04:43:36.212Z,21.68
2018-01-17T04:44:36.205Z,21.63
2018-01-17T04:45:36.198Z,21.62
2018-01-17T04:46:36.192Z,21.69
2018-01-17T04:47:36.187Z,21.69
2018-01-17T04:48:36.180Z,21.56
2018-01-17T04:49:36.173Z,21.15
2018-01-17T04:50:36.165Z,20.85
2018-01-17T04:51:36.160Z,20.85
2018-01-17T04:52:36.193Z,20.78
2018-01-17T04:53:36.145Z,20.73
2018-01-17T04:54:36.139Z,20.73
2018-01-17T04:55:36.131Z,20.78
2018-01-17T04:56:36.124Z,20.71
2018-01-17T04:57:36.116Z,20.82
2018-01-17T04:58:36.109Z,20.85
2018-01-17T04:59:36.103Z,20.86
2018-01-17T05:00:36.093Z,20.82
2018-01-17T05:01:36.086Z,20.86
2018-01-17T05:02:36.078Z,20.96
2018-01-17T05:03:36.072Z,21.03
2018-01-17T05:04:36.063Z,21.03
2018-01-17T05:05:36.055Z,21.07
2018-01-17T05:06:36.051Z,21.10
2018-01-17T05:07:36.041Z,21.15
2018-01-17T05:08:36.034Z,21.25
2018-01-17T05:09:36.026Z,21.17
2018-01-17T05:10:36.017Z,21.23
2018-01-17T05:11:36.010Z,21.29
2018-01-17T05:12:36.002Z,21.38
2018-01-17T05:13:35.994Z,21.48
2018-01-17T05:14:35.990Z,21.44
2018-01-17T05:15:35.978Z,21.53
2018-01-17T05:16:35.971Z,21.53
2018-01-17T05:17:35.966Z,21.59
2018-01-17T05:18:35.954Z,21.56
2018-01-17T05:19:35.947Z,21.56
2018-01-17T05:20:35.940Z,21.60
2018-01-17T05:21:35.932Z,21.65
2018-01-17T05:22:35.924Z,21.66
2018-01-17T05:23:35.915Z,21.65
2018-01-17T05:24:35.909Z,21.69
2018-01-17T05:25:35.900Z,21.65
2018-01-17T05:26:35.893Z,21.77
2018-01-17T05:27:35.886Z,21.72
2018-01-17T05:28:35.878Z,21.75
2018-01-17T05:29:35.869Z,21.75
2018-01-17T05:30:35.862Z,21.78
2018-01-17T05:31:35.852Z,21.75
2018-01-17T05:32:35.847Z,21.75
2018-01-17T05:33:35.842Z,21.74
2018-01-17T05:34:35.831Z,21.77
2018-01-17T05:35:35.822Z,21.75
2018-01-17T05:36:35.814Z,21.77
2018-01-17T05:37:35.807Z,21.78
2018-01-17T05:38:35.799Z,21.74
2018-01-17T05:39:35.791Z,21.78
2018-01-17T05:40:35.786Z,21.80
2018-01-17T05:41:35.776Z,21.75
2018-01-17T05:42:35.769Z,21.85
2018-01-17T05:43:35.762Z,21.77
2018-01-17T05:44:35.753Z,21.80
2018-01-17T05:45:35.742Z,21.77
2018-01-17T05:46:35.737Z,21.78
2018-01-17T05:47:35.729Z,21.80
2018-01-17T05:48:35.721Z,21.80
2018-01-17T05:49:35.714Z,21.81
2018-01-17T05:50:35.706Z,21.77
2018-01-17T05:51:35.700Z,21.78
2018-01-17T05:52:35.690Z,21.83
2018-01-17T05:53:35.683Z,21.78
2018-01-17T05:54:35.675Z,21.77
2018-01-17T05:55:35.667Z,21.80
2018-01-17T05:56:35.661Z,21.80
2018-01-17T05:57:35.651Z,21.72
2018-01-17T05:58:35.644Z,21.78
2018-01-17T05:59:35.636Z,21.75
2018-01-17T06:00:35.632Z,21.80
2018-01-17T06:01:35.621Z,21.77
2018-01-17T06:02:35.612Z,21.72
2018-01-17T06:03:35.607Z,21.85
2018-01-17T06:04:35.598Z,21.78
2018-01-17T06:05:35.589Z,21.77
2018-01-17T06:06:35.585Z,21.75
2018-01-17T06:07:35.576Z,21.77
2018-01-17T06:08:35.565Z,21.74
2018-01-17T06:09:35.558Z,21.80
2018-01-17T06:10:35.549Z,21.74
2018-01-17T06:11:35.546Z,21.78
2018-01-17T06:12:35.536Z,21.72
2018-01-17T06:13:35.527Z,21.80
2018-01-17T06:14:35.524Z,21.74
2018-01-17T06:15:35.512Z,21.74
2018-01-17T06:16:35.502Z,21.74
2018-01-17T06:17:35.496Z,21.70
2018-01-17T06:18:35.489Z,21.74
2018-01-17T06:19:35.479Z,21.68
2018-01-17T06:20:35.471Z,21.66
2018-01-17T06:21:35.463Z,21.66
2018-01-17T06:22:35.457Z,21.69
2018-01-17T06:23:35.448Z,21.68
2018-01-17T06:24:35.440Z,21.66
2018-01-17T06:25:35.434Z,21.66
2018-01-17T06:26:35.425Z,21.68
2018-01-17T06:27:35.415Z,21.66
2018-01-17T06:28:35.412Z,21.68
2018-01-17T06:29:35.401Z,21.68
2018-01-17T06:30:35.392Z,21.69
2018-01-17T06:31:35.385Z,21.65
2018-01-17T06:32:35.377Z,21.66
2018-01-17T06:33:35.370Z,21.68
2018-01-17T06:34:35.362Z,21.72
2018-01-17T06:35:35.355Z,21.66
2018-01-17T06:36:35.347Z,21.68
2018-01-17T06:37:35.338Z,21.65
2018-01-17T06:38:35.336Z,21.69
2018-01-17T06:39:35.323Z,21.69
2018-01-17T06:40:35.314Z,21.68
2018-01-17T06:41:35.307Z,21.66
2018-01-17T06:42:35.299Z,21.65
2018-01-17T06:43:35.295Z,21.70
2018-01-17T06:44:35.282Z,21.62
2018-01-17T06:45:35.275Z,21.68
2018-01-17T06:46:35.269Z,21.62
2018-01-17T06:47:35.258Z,21.63
2018-01-17T06:48:35.251Z,21.68
2018-01-17T06:49:35.243Z,21.66
2018-01-17T06:50:35.234Z,21.58
2018-01-17T06:51:35.232Z,21.59
2018-01-17T06:52:35.221Z,21.62
2018-01-17T06:53:35.211Z,21.62
2018-01-17T06:54:35.203Z,21.59
2018-01-17T06:55:35.196Z,21.66
2018-01-17T06:56:35.188Z,21.60
2018-01-17T06:57:35.185Z,21.66
2018-01-17T06:58:35.172Z,21.65
2018-01-17T06:59:35.165Z,21.63
2018-01-17T07:00:35.157Z,21.65
2018-01-17T07:01:35.148Z,21.70
2018-01-17T07:02:35.152Z,21.66
2018-01-17T07:03:35.131Z,21.68
2018-01-17T07:04:35.126Z,21.63
2018-01-17T07:05:35.116Z,21.68
2018-01-17T07:06:35.109Z,21.65
2018-01-17T07:07:35.102Z,21.66
2018-01-17T07:08:35.094Z,21.66
2018-01-17T07:09:35.084Z,21.65
2018-01-17T07:10:35.076Z,21.63
2018-01-17T07:11:35.070Z,21.68
2018-01-17T07:12:35.062Z,21.72
2018-01-17T07:13:35.054Z,21.65
2018-01-17T07:14:35.045Z,21.65
2018-01-17T07:15:35.038Z,21.68
2018-01-17T07:16:35.029Z,21.69
2018-01-17T07:17:35.020Z,21.70
2018-01-17T07:18:35.013Z,21.66
2018-01-17T07:19:35.008Z,21.66
2018-01-17T07:20:34.999Z,21.63
2018-01-17T07:21:34.990Z,21.66
2018-01-17T07:22:34.983Z,21.68
2018-01-17T07:23:34.975Z,21.65
2018-01-17T07:24:34.967Z,21.63
2018-01-17T07:25:34.959Z,21.65
2018-01-17T07:26:34.952Z,21.63
2018-01-17T07:27:34.943Z,21.65
2018-01-17T07:28:34.936Z,21.69
2018-01-17T07:29:34.928Z,21.59
2018-01-17T07:30:34.919Z,21.68
2018-01-17T07:31:34.920Z,21.66
2018-01-17T07:32:34.905Z,21.66
2018-01-17T07:33:34.895Z,21.66
2018-01-17T07:34:34.889Z,21.65
2018-01-17T07:35:34.880Z,21.65
2018-01-17T07:36:34.872Z,21.66
2018-01-17T07:37:34.865Z,21.66
2018-01-17T07:38:34.855Z,21.59
2018-01-17T07:39:34.848Z,21.66
2018-01-17T07:40:34.840Z,21.65
2018-01-17T07:41:34.832Z,21.63
2018-01-17T07:42:34.824Z,21.65
2018-01-17T07:43:34.820Z,21.60
2018-01-17T07:44:34.809Z,21.69
2018-01-17T07:45:34.799Z,21.62
2018-01-17T07:46:34.792Z,21.66
2018-01-17T07:47:34.787Z,21.66
2018-01-17T07:48:34.778Z,21.68
2018-01-17T07:49:34.775Z,21.62
2018-01-17T07:50:34.766Z,21.68
2018-01-17T07:51:34.753Z,21.59
2018-01-17T07:52:34.746Z,21.58
2018-01-17T07:53:34.737Z,21.66
2018-01-17T07:54:34.730Z,21.62
2018-01-17T07:55:34.724Z,21.62
2018-01-17T07:56:34.715Z,21.62
2018-01-17T07:57:34.706Z,21.59
2018-01-17T07:58:34.697Z,21.59
2018-01-17T07:59:34.690Z,21.68
2018-01-17T08:00:34.682Z,21.65
2018-01-17T08:01:34.673Z,21.62
2018-01-17T08:02:34.666Z,21.66
2018-01-17T08:03:34.659Z,21.65
2018-01-17T08:04:34.651Z,21.66
2018-01-17T08:05:34.643Z,21.65
2018-01-17T08:06:34.636Z,21.59
2018-01-17T08:07:34.627Z,21.69
2018-01-17T08:08:34.619Z,21.63
2018-01-17T08:09:34.609Z,21.62
2018-01-17T08:10:34.602Z,21.59
2018-01-17T08:11:34.595Z,21.59
2018-01-17T08:12:34.587Z,21.68
2018-01-17T08:13:34.579Z,21.69
2018-01-17T08:14:34.571Z,21.69
2018-01-17T08:15:34.562Z,21.68
2018-01-17T08:16:34.555Z,21.62
2018-01-17T08:17:34.548Z,21.62
2018-01-17T08:18:34.539Z,21.65
2018-01-17T08:19:34.532Z,21.63
2018-01-17T08:20:34.554Z,21.66
2018-01-17T08:21:34.514Z,21.65
2018-01-17T08:22:34.509Z,21.65
2018-01-17T08:23:34.504Z,21.63
2018-01-17T08:24:34.492Z,21.70
2018-01-17T08:25:34.483Z,21.69
2018-01-17T08:26:34.476Z,21.69
2018-01-17T08:27:34.468Z,21.68
2018-01-17T08:28:34.459Z,21.62
2018-01-17T08:29:34.452Z,21.62
2018-01-17T08:30:34.445Z,21.62
2018-01-17T08:31:34.485Z,21.63
2018-01-17T08:32:34.431Z,21.60
2018-01-17T08:33:34.420Z,21.69
2018-01-17T08:34:34.412Z,21.69
2018-01-17T08:35:34.404Z,21.66
2018-01-17T08:36:34.396Z,21.66
2018-01-17T08:37:34.388Z,21.62
2018-01-17T08:38:34.382Z,21.69
2018-01-17T08:39:34.377Z,21.62
2018-01-17T08:40:34.366Z,21.65
2018-01-17T08:41:34.356Z,21.63
2018-01-17T08:42:34.349Z,21.66
2018-01-17T08:43:34.341Z,21.69
2018-01-17T08:44:34.335Z,21.62
2018-01-17T08:45:34.326Z,21.69
2018-01-17T08:46:34.319Z,21.78
2018-01-17T08:47:34.309Z,21.65
2018-01-17T08:48:34.301Z,21.66
2018-01-17T08:49:34.294Z,21.65
2018-01-17T08:50:34.284Z,21.69
2018-01-17T08:51:34.277Z,21.62
2018-01-17T08:52:34.270Z,21.63
2018-01-17T08:53:34.264Z,21.66
2018-01-17T08:54:34.254Z,21.66
2018-01-17T08:55:34.249Z,21.66
2018-01-17T08:56:34.241Z,21.78
2018-01-17T08:57:34.230Z,21.77
2018-01-17T08:58:34.222Z,21.72
2018-01-17T08:59:34.215Z,21.81
2018-01-17T09:00:34.207Z,21.83
2018-01-17T09:01:34.200Z,21.88
2018-01-17T09:02:34.193Z,21.94
2018-01-17T09:03:34.185Z,21.99
2018-01-17T09:04:34.176Z,22.03
2018-01-17T09:05:34.166Z,22.03
2018-01-17T09:06:34.160Z,22.07
2018-01-17T09:07:34.153Z,22.18
2018-01-17T09:08:34.144Z,22.07
2018-01-17T09:09:34.136Z,22.19
2018-01-17T09:10:34.128Z,22.14
2018-01-17T09:11:34.123Z,22.18
2018-01-17T09:12:34.114Z,22.23
2018-01-17T09:13:34.106Z,22.25
2018-01-17T09:14:34.098Z,22.25
2018-01-17T09:15:34.091Z,22.25
2018-01-17T09:16:34.090Z,22.37
2018-01-17T09:17:34.073Z,22.37
2018-01-17T09:18:34.068Z,22.37
2018-01-17T09:19:34.060Z,22.41
2018-01-17T09:20:34.056Z,22.34
2018-01-17T09:21:34.046Z,22.37
2018-01-17T09:22:34.037Z,22.34
2018-01-17T09:23:34.030Z,22.21
2018-01-17T09:24:34.023Z,22.28
2018-01-17T09:25:34.015Z,22.25
2018-01-17T09:26:34.008Z,22.25
2018-01-17T09:27:34.001Z,22.26
2018-01-17T09:28:33.992Z,22.30
2018-01-17T09:29:33.987Z,22.31
2018-01-17T09:30:33.978Z,22.41
2018-01-17T09:31:33.970Z,22.47
2018-01-17T09:32:33.964Z,22.84
2018-01-17T09:33:33.956Z,23.16
2018-01-17T09:34:33.950Z,23.63
2018-01-17T09:35:33.946Z,23.99
2018-01-17T09:36:33.939Z,24.41
2018-01-17T09:37:33.933Z,24.89
2018-01-17T09:38:33.927Z,25.21
2018-01-17T09:39:33.927Z,25.58
2018-01-17T09:40:33.917Z,25.85
2018-01-17T09:41:33.914Z,26.15
2018-01-17T09:42:33.911Z,26.29
2018-01-17T09:43:33.908Z,26.66
2018-01-17T09:44:33.905Z,26.73
2018-01-17T09:45:33.901Z,26.82
2018-01-17T09:46:33.899Z,26.97
2018-01-17T09:47:33.897Z,26.98
2018-01-17T09:48:33.895Z,27.04
2018-01-17T09:49:33.891Z,27.00
2018-01-17T09:50:33.888Z,26.98
2018-01-17T09:51:33.888Z,26.89
2018-01-17T09:52:33.885Z,26.92
2018-01-17T09:53:33.886Z,26.85
2018-01-17T09:54:33.882Z,26.67
2018-01-17T09:55:33.879Z,26.64
2018-01-17T09:56:33.878Z,26.49
2018-01-17T09:57:33.873Z,26.39
2018-01-17T09:58:33.875Z,26.27
2018-01-17T09:59:33.870Z,26.13
2018-01-17T10:00:33.868Z,25.96
2018-01-17T10:01:33.864Z,25.92
2018-01-17T10:02:33.864Z,25.70
2018-01-17T10:03:33.861Z,25.67
2018-01-17T10:04:33.857Z,25.52
2018-01-17T10:05:33.853Z,25.24
2018-01-17T10:06:33.850Z,25.19
2018-01-17T10:07:33.847Z,24.99
2018-01-17T10:08:33.844Z,25.00
2018-01-17T10:09:33.841Z,24.93
2018-01-17T10:10:33.879Z,24.99
2018-01-17T10:11:33.833Z,24.92
2018-01-17T10:12:33.830Z,24.81
2018-01-17T10:13:33.826Z,24.75
2018-01-17T10:14:33.824Z,24.68
2018-01-17T10:15:33.818Z,24.58
2018-01-17T10:16:33.815Z,24.46
2018-01-17T10:17:33.810Z,24.40
2018-01-17T10:18:33.807Z,24.36
2018-01-17T10:19:33.803Z,24.36
2018-01-17T10:20:33.799Z,24.29
2018-01-17T10:21:33.794Z,24.24
2018-01-17T10:22:33.788Z,24.18
2018-01-17T10:23:33.808Z,24.19
2018-01-17T10:24:33.788Z,24.16
2018-01-17T10:25:33.777Z,24.07
2018-01-17T10:26:33.773Z,24.06
2018-01-17T10:27:33.769Z,23.99
2018-01-17T10:28:33.764Z,23.92
2018-01-17T10:29:33.759Z,23.95
2018-01-17T10:30:33.753Z,23.92
2018-01-17T10:31:33.749Z,23.81
2018-01-17T10:32:33.745Z,23.85
2018-01-17T10:33:33.739Z,23.84
2018-01-17T10:34:33.735Z,23.66
2018-01-17T10:35:33.728Z,23.81
2018-01-17T10:36:33.726Z,23.70
2018-01-17T10:37:33.718Z,23.66
2018-01-17T10:38:33.714Z,23.67
2018-01-17T10:39:33.708Z,23.67
2018-01-17T10:40:33.701Z,23.59
2018-01-17T10:41:33.697Z,23.59
2018-01-17T10:42:33.691Z,23.49
2018-01-17T10:43:33.685Z,23.37
2018-01-17T10:44:33.681Z,23.32
2018-01-17T10:45:33.673Z,23.32
2018-01-17T10:46:33.668Z,23.28
2018-01-17T10:47:33.665Z,23.14
2018-01-17T10:48:33.658Z,23.08
2018-01-17T10:49:33.651Z,23.01
2018-01-17T10:50:33.645Z,22.96
2018-01-17T10:51:33.638Z,22.93
2018-01-17T10:52:33.632Z,22.92
2018-01-17T10:53:33.625Z,22.80
2018-01-17T10:54:33.619Z,22.77
2018-01-17T10:55:33.614Z,22.73
2018-01-17T10:56:33.606Z,22.74
2018-01-17T10:57:33.600Z,22.68
2018-01-17T10:58:33.593Z,22.62
2018-01-17T10:59:33.641Z,22.67
2018-01-17T11:00:33.582Z,22.59
2018-01-17T11:01:33.574Z,22.58
2018-01-17T11:02:33.567Z,22.53
2018-01-17T11:03:33.562Z,22.49
2018-01-17T11:04:33.555Z,22.53
2018-01-17T11:05:33.552Z,22.53
2018-01-17T11:06:33.539Z,22.52
2018-01-17T11:07:33.533Z,22.58
2018-01-17T11:08:33.528Z,22.55
2018-01-17T11:09:33.519Z,22.74
2018-01-17T11:10:33.513Z,22.78
2018-01-17T11:11:33.505Z,22.95
2018-01-17T11:12:33.502Z,23.02
2018-01-17T11:13:33.492Z,23.14
2018-01-17T11:14:33.485Z,23.29
2018-01-17T11:15:33.480Z,23.44
2018-01-17T11:16:33.474Z,23.51
2018-01-17T11:17:33.466Z,23.49
2018-01-17T11:18:33.461Z,23.52
2018-01-17T11:19:33.453Z,23.49
2018-01-17T11:20:33.447Z,23.48
2018-01-17T11:21:33.439Z,23.28
2018-01-17T11:22:33.434Z,23.25
2018-01-17T11:23:33.426Z,23.20
2018-01-17T11:24:33.433Z,23.16
2018-01-17T11:25:33.412Z,23.08
2018-01-17T11:26:33.404Z,23.04
2018-01-17T11:27:33.398Z,22.95
2018-01-17T11:28:33.401Z,22.93
2018-01-17T11:29:33.384Z,22.92
2018-01-17T11:30:33.378Z,22.93
2018-01-17T11:31:33.372Z,22.98
2018-01-17T11:32:33.365Z,22.99
2018-01-17T11:33:33.356Z,23.04
2018-01-17T11:34:33.351Z,23.04
2018-01-17T11:35:33.343Z,22.99
2018-01-17T11:36:33.337Z,23.11
2018-01-17T11:37:33.329Z,23.04
2018-01-17T11:38:33.324Z,23.01
2018-01-17T11:39:33.315Z,22.96
2018-01-17T11:40:33.310Z,22.91
2018-01-17T11:41:33.302Z,22.86
2018-01-17T11:42:33.295Z,22.84
2018-01-17T11:43:33.287Z,22.70
2018-01-17T11:44:33.281Z,22.71
2018-01-17T11:45:33.277Z,22.70
2018-01-17T11:46:33.267Z,22.62
2018-01-17T11:47:33.260Z,22.59
2018-01-17T11:48:33.251Z,22.49
2018-01-17T11:49:33.244Z,22.46
2018-01-17T11:50:33.237Z,22.47
2018-01-17T11:51:33.231Z,22.46
2018-01-17T11:52:33.224Z,22.49
2018-01-17T11:53:33.216Z,22.43
2018-01-17T11:54:33.210Z,22.40
2018-01-17T11:55:33.202Z,22.38
2018-01-17T11:56:33.195Z,22.37
2018-01-17T11:57:33.187Z,22.53
2018-01-17T11:58:33.182Z,22.41
2018-01-17T11:59:33.173Z,22.40
2018-01-17T12:00:33.173Z,22.44
2018-01-17T12:01:33.159Z,22.38
2018-01-17T12:02:33.151Z,22.40
2018-01-17T12:03:33.144Z,22.43
2018-01-17T12:04:33.137Z,22.30
2018-01-17T12:05:33.130Z,22.36
2018-01-17T12:06:33.124Z,22.34
2018-01-17T12:07:33.114Z,22.34
2018-01-17T12:08:33.110Z,22.30
2018-01-17T12:09:33.103Z,22.28
2018-01-17T12:10:33.094Z,22.30
2018-01-17T12:11:33.086Z,22.25
2018-01-17T12:12:33.080Z,22.23
2018-01-17T12:13:33.072Z,22.21
2018-01-17T12:14:33.062Z,22.19
2018-01-17T12:15:33.056Z,22.19
2018-01-17T12:16:33.048Z,22.19
2018-01-17T12:17:33.040Z,22.18
2018-01-17T12:18:33.040Z,22.19
2018-01-17T12:19:33.026Z,22.16
2018-01-17T12:20:33.020Z,22.22
2018-01-17T12:21:33.011Z,22.16
2018-01-17T12:22:33.003Z,22.23
2018-01-17T12:23:32.996Z,22.22
2018-01-17T12:24:32.989Z,22.19
2018-01-17T12:25:32.980Z,22.26
2018-01-17T12:26:32.976Z,22.25
2018-01-17T12:27:32.967Z,22.37
2018-01-17T12:28:32.959Z,22.37
2018-01-17T12:29:32.953Z,22.40
2018-01-17T12:30:32.945Z,22.37
2018-01-17T12:31:32.937Z,22.46
2018-01-17T12:32:32.930Z,22.40
2018-01-17T12:33:32.923Z,22.44
2018-01-17T12:34:32.915Z,22.41
2018-01-17T12:35:32.908Z,22.51
2018-01-17T12:36:32.899Z,22.52
2018-01-17T12:37:32.892Z,22.47
2018-01-17T12:38:32.884Z,22.51
2018-01-17T12:39:32.879Z,22.41
2018-01-17T12:40:32.871Z,22.52
2018-01-17T12:41:32.861Z,22.51
2018-01-17T12:42:32.854Z,22.58
2018-01-17T12:43:32.848Z,22.46
2018-01-17T12:44:32.842Z,22.44
2018-01-17T12:45:32.833Z,22.38
2018-01-17T12:46:32.831Z,22.41
2018-01-17T12:47:32.818Z,22.31
2018-01-17T12:48:32.811Z,22.26
2018-01-17T12:49:32.803Z,22.34
2018-01-17T12:50:32.797Z,22.28
2018-01-17T12:51:32.790Z,22.30
2018-01-17T12:52:32.785Z,22.25